Latest Weather Observations for Gove Airport

IDD60801

Issued at 10:11 pm CST Tuesday 24 May 2022 (issued every 10 minutes, with the page automatically refreshed every 10 minutes)

About weather observations | Map of weather stations | Latest weather observations for NT | Other Formats
Station Details ID: 014508 Name: GOVE AIRPORT Lat: -12.27 Lon: 136.82 Height: 51.6 m
Data from the previous 72 hours. | See also: Recent months at Gove Airport
Date/Time
CST
Temp
°C
App
Temp
°C
Dew
Point
°C
Rel
Hum
%
Delta-T
°C
Wind Press
QNH
hPa
Press
MSL
hPa
Rain since
9am
mm
Dir  Spd
km/h
Gust
km/h
Spd
kts
Gust
kts
24/10:00pm 26.3 28.7 22.2 78 2.8 SE 13 17 7 9 1014.3 1014.0 0.0
24/09:30pm 26.4 28.5 22.5 79 2.6 SE 15 19 8 10 1014.3 1014.0 0.0
24/09:00pm 26.2 29.6 22.7 81 2.4 SE 9 11 5 6 1014.2 1013.9 0.0
24/08:30pm 26.5 29.1 22.6 79 2.6 SE 13 17 7 9 1014.1 1013.8 0.0
24/08:00pm 26.8 29.3 22.4 77 3.0 SE 13 19 7 10 1013.9 1013.6 0.0
24/07:30pm 27.0 29.3 22.0 74 3.4 SE 13 19 7 10 1013.5 1013.2 0.0
24/07:00pm 27.4 29.7 22.1 73 3.6 SSE 13 17 7 9 1013.2 1012.9 0.0
24/06:30pm 27.5 29.5 22.2 73 3.6 SE 15 19 8 10 1012.8 1012.5 0.0
24/06:00pm 27.6 29.5 22.1 72 3.7 SE 15 19 8 10 1012.2 1011.9 0.0
24/05:30pm 28.2 30.1 22.0 69 4.2 SE 15 22 8 12 1011.8 1011.5 0.0
24/05:00pm 28.2 28.9 21.5 67 4.5 SE 20 26 11 14 1011.4 1011.1 0.0
24/04:30pm 29.0 28.9 21.5 64 5.0 ESE 24 30 13 16 1011.1 1010.8 0.0
24/04:00pm 29.4 30.3 21.9 64 5.1 SE 20 30 11 16 1010.9 1010.6 0.0
24/03:30pm 28.8 29.5 21.6 65 4.8 SE 20 28 11 15 1011.0 1010.7 0.0
24/03:00pm 29.4 30.1 21.6 63 5.2 SE 20 30 11 16 1011.1 1010.8 0.0
24/02:30pm 30.0 31.0 22.2 63 5.3 SE 20 28 11 15 1011.2 1010.9 0.0
24/02:00pm 30.6 30.7 21.9 59 5.9 SE 24 32 13 17 1011.2 1010.9 0.0
24/01:30pm 30.3 30.4 21.9 60 5.7 SE 24 32 13 17 1011.6 1011.3 0.0
24/01:00pm 29.7 30.5 22.4 65 5.0 SE 22 30 12 16 1012.1 1011.8 0.0
24/12:30pm 29.6 29.8 22.1 64 5.1 ESE 24 32 13 17 1012.4 1012.1 0.0
24/12:00pm 29.5 29.9 21.7 63 5.3 SE 22 30 12 16 1012.7 1012.4 0.0
24/11:30am 30.0 30.7 22.2 63 5.3 SE 22 33 12 18 1013.1 1012.8 0.0
24/11:00am 29.5 30.3 21.7 63 5.3 SE 20 28 11 15 1013.3 1013.0 0.0
24/10:30am 30.0 30.9 21.9 62 5.5 SE 20 30 11 16 1013.5 1013.2 0.0
24/10:00am 29.4 30.2 22.4 66 4.8 ESE 22 30 12 16 1013.7 1013.4 0.0
24/09:30am 29.4 30.3 22.6 67 4.6 ESE 22 28 12 15 1013.4 1013.1 0.0
24/09:00am 29.2 30.3 22.4 66 4.6 ESE 20 28 11 15 1013.2 1012.9 0.0
24/08:30am 28.4 30.5 23.1 73 3.6 ESE 17 22 9 12 1013.0 1012.7 0.0
24/08:00am 27.2 30.0 23.0 78 2.9 ESE 13 20 7 11 1012.9 1012.6 0.0
24/07:30am 26.1 29.6 23.6 86 1.7 ESE 11 13 6 7 1012.7 1012.4 0.0
24/07:00am 24.3 27.6 22.6 90 1.1 SE 9 9 5 5 1012.5 1012.2 0.0
24/06:30am 24.4 28.3 22.5 89 1.3 SE 6 7 3 4 1012.4 1012.1 0.0
24/06:00am 24.5 28.1 22.4 88 1.4 SE 7 7 4 4 1012.1 1011.8 0.0
24/05:30am 24.5 28.1 22.4 88 1.4 SE 7 9 4 5 1012.0 1011.7 0.0
24/05:00am 24.6 27.8 22.3 87 1.5 SE 9 9 5 5 1011.8 1011.5 0.0
24/04:30am 24.7 27.6 22.4 87 1.5 SE 11 13 6 7 1011.6 1011.3 0.0
24/04:00am 24.8 27.7 22.5 87 1.5 SE 11 13 6 7 1011.5 1011.2 0.0
24/03:30am 24.6 27.8 22.3 87 1.5 ESE 9 13 5 7 1011.6 1011.3 0.0
24/03:00am 24.9 27.6 22.2 85 1.8 ESE 11 11 6 6 1011.6 1011.3 0.0
24/02:30am 25.4 28.2 22.3 83 2.1 ESE 11 13 6 7 1012.0 1011.7 0.0
24/02:00am 25.6 28.5 22.5 83 2.1 ESE 11 15 6 8 1012.2 1011.9 0.0
24/01:30am 25.6 28.4 22.3 82 2.2 ESE 11 13 6 7 1012.4 1012.1 0.0
24/01:00am 25.9 28.0 22.4 81 2.4 ESE 15 19 8 10 1012.5 1012.2 0.0
24/12:30am 25.9 28.4 22.4 81 2.4 SE 13 19 7 10 1012.8 1012.5 0.0
24/12:00am 26.1 28.7 22.6 81 2.4 ESE 13 17 7 9 1013.0 1012.7 0.0
 
Date/Time
CST
Temp
°C
App
Temp
°C
Dew
Point
°C
Rel
Hum
%
Delta-T
°C
Wind Press
QNH
hPa
Press
MSL
hPa
Rain since
9am
mm
Dir  Spd
km/h
Gust
km/h
Spd
kts
Gust
kts
23/11:30pm 26.0 28.0 22.3 80 2.5 SE 15 19 8 10 1013.2 1012.9 0.0
23/11:00pm 26.3 27.9 22.2 78 2.8 SE 17 20 9 11 1013.3 1013.0 0.0
23/10:30pm 26.3 27.7 21.9 77 2.9 ESE 17 20 9 11 1013.5 1013.2 0.0
23/10:00pm 26.3 27.5 21.5 75 3.2 ESE 17 22 9 12 1013.3 1013.0 0.0
23/09:30pm 26.4 27.8 21.8 76 3.1 ESE 17 22 9 12 1013.2 1012.9 0.0
23/09:00pm 26.5 27.9 21.9 76 3.1 ESE 17 22 9 12 1013.1 1012.8 0.0
23/08:30pm 26.6 28.0 21.8 75 3.2 ESE 17 20 9 11 1013.0 1012.7 0.0
23/08:00pm 26.9 28.0 21.9 74 3.4 ESE 19 26 10 14 1012.8 1012.5 0.0
23/07:30pm 26.9 28.5 22.1 75 3.2 SE 17 20 9 11 1012.4 1012.1 0.0
23/07:00pm 27.0 28.2 22.2 75 3.2 ESE 19 24 10 13 1012.2 1011.9 0.0
23/06:30pm 27.2 28.2 22.2 74 3.4 ESE 20 26 11 14 1011.9 1011.6 0.0
23/06:00pm 27.5 28.2 22.2 73 3.6 SE 22 28 12 15 1011.5 1011.2 0.0
23/05:30pm 28.1 28.4 22.3 70 3.9 ESE 24 32 13 17 1011.1 1010.8 0.0
23/05:00pm 28.6 27.3 22.1 68 4.4 SE 32 43 17 23 1010.8 1010.4 0.0
23/04:30pm 29.2 28.7 22.2 66 4.7 SE 28 39 15 21 1010.7 1010.3 0.0
23/04:00pm 29.5 28.9 22.0 64 5.1 SE 28 43 15 23 1010.6 1010.2 0.0
23/03:30pm 29.3 27.9 22.0 64 4.9 SE 32 44 17 24 1010.4 1010.0 0.0
23/03:00pm 29.6 29.1 22.8 67 4.7 ESE 30 41 16 22 1010.7 1010.3 0.0
23/02:30pm 28.9 28.8 22.2 67 4.5 SE 26 39 14 21 1011.0 1010.7 0.0
23/02:00pm 28.9 28.4 22.2 67 4.5 ESE 28 39 15 21 1011.4 1011.1 0.0
23/01:30pm 28.8 29.8 22.8 70 4.1 SE 22 30 12 16 1011.6 1011.3 0.0
23/01:00pm 29.1 29.3 22.8 69 4.3 ESE 26 35 14 19 1011.8 1011.5 0.0
23/12:30pm 29.4 30.2 23.1 69 4.3 ESE 24 33 13 18 1012.3 1012.0 0.0
23/12:00pm 29.1 29.2 22.6 68 4.4 SE 26 32 14 17 1012.6 1012.3 0.0
23/11:30am 29.5 30.6 23.7 71 4.0 SE 24 33 13 18 1012.8 1012.5 0.0
23/11:00am 30.5 31.2 22.9 64 5.2 SE 24 32 13 17 1013.0 1012.7 0.0
23/10:30am 30.2 30.6 23.1 65 4.9 ESE 26 35 14 19 1013.3 1013.0 0.0
23/10:00am 29.1 29.7 22.8 69 4.3 ESE 24 33 13 18 1013.4 1013.1 0.0
23/09:30am 29.3 30.4 23.0 69 4.3 ESE 22 32 12 17 1013.5 1013.2 0.0
23/09:00am 29.6 31.5 23.8 71 4.0 ESE 20 26 11 14 1013.3 1013.0 0.8
23/08:30am 28.7 31.4 23.4 73 3.6 ESE 15 19 8 10 1013.2 1012.9 0.8
23/08:00am 27.7 30.9 23.1 76 3.1 SE 11 15 6 8 1013.1 1012.8 0.8
23/07:30am 26.2 29.9 23.3 84 2.0 SE 9 13 5 7 1012.9 1012.6 0.8
23/07:00am 25.5 29.2 23.2 87 1.6 SSE 9 13 5 7 1012.6 1012.3 0.8
23/06:30am 24.8 29.1 23.6 93 0.8 S 7 9 4 5 1012.3 1012.0 0.8
23/06:00am 24.7 29.1 23.5 93 0.8 S 6 7 3 4 1011.8 1011.5 0.6
23/05:30am 24.6 29.0 23.4 93 0.8 S 6 6 3 3 1011.5 1011.2 0.6
23/05:00am 24.2 28.3 23.0 93 0.8 S 6 6 3 3 1011.1 1010.8 0.6
23/04:30am 23.9 27.6 22.5 92 0.9 S 7 9 4 5 1010.9 1010.6 0.6
23/04:00am 24.4 27.7 22.5 89 1.3 ESE 9 11 5 6 1010.8 1010.4 0.6
23/03:30am 24.7 24.2 22.2 86 1.7 SE 28 41 15 22 1010.9 1010.6 0.4
23/03:25am 25.8 27.4 22.9 84 2.0 ESE 19 41 10 22 1010.9 1010.6 0.0
23/03:00am 26.2 29.8 23.1 83 2.1 E 9 11 5 6 1010.9 1010.6 0.0
23/02:30am 26.0 29.5 22.9 83 2.1 SE 9 15 5 8 1010.9 1010.6 0.0
23/02:00am 26.1 29.2 22.8 82 2.2 ESE 11 13 6 7 1011.1 1010.8 0.0
23/01:30am 26.3 28.9 22.6 80 2.5 ESE 13 17 7 9 1011.1 1010.8 0.0
23/01:00am 26.0 29.5 22.9 83 2.1 SE 9 13 5 7 1011.4 1011.1 0.0
23/12:30am 25.8 29.4 23.1 85 1.8 SE 9 11 5 6 1011.5 1011.2 0.0
23/12:00am 25.9 29.2 23.2 85 1.8 SE 11 15 6 8 1011.7 1011.4 0.0
 
Date/Time
CST
Temp
°C
App
Temp
°C
Dew
Point
°C
Rel
Hum
%
Delta-T
°C
Wind Press
QNH
hPa
Press
MSL
hPa
Rain since
9am
mm
Dir  Spd
km/h
Gust
km/h
Spd
kts
Gust
kts
22/11:30pm 26.6 28.3 23.1 81 2.4 SE 19 28 10 15 1011.8 1011.5 0.0
22/11:00pm 26.9 29.6 22.9 79 2.7 ESE 13 17 7 9 1012.0 1011.7 0.0
22/10:30pm 27.0 28.6 22.8 78 2.9 SE 19 24 10 13 1012.0 1011.7 0.0
22/10:00pm 26.8 29.0 22.6 78 2.8 SE 15 22 8 12 1011.9 1011.6 0.0
22/09:30pm 26.9 28.2 22.3 76 3.1 SE 19 28 10 15 1011.9 1011.6 0.0
22/09:00pm 26.5 29.3 23.0 81 2.4 SE 13 17 7 9 1011.9 1011.6 0.0
22/08:30pm 26.7 28.5 23.2 81 2.4 ESE 19 22 10 12 1011.9 1011.6 0.0
22/08:00pm 27.6 29.3 22.3 73 3.6 SE 17 22 9 12 1011.5 1011.2 0.0
22/07:30pm 27.3 29.0 22.3 74 3.4 SE 17 24 9 13 1011.0 1010.7 0.0
22/07:00pm 27.4 29.0 22.1 73 3.6 SE 17 24 9 13 1010.9 1010.6 0.0
22/06:30pm 27.4 28.5 21.9 72 3.7 SE 19 24 10 13 1010.6 1010.2 0.0
22/06:00pm 27.8 28.2 21.8 70 4.0 SE 22 28 12 15 1010.4 1010.0 0.0
22/05:30pm 28.5 28.7 22.0 68 4.4 SE 24 32 13 17 1010.2 1009.8 0.0
22/05:00pm 29.2 30.2 22.2 66 4.7 SE 20 30 11 16 1010.2 1009.8 0.0
22/04:30pm 29.2 29.9 22.2 66 4.7 SE 22 30 12 16 1009.9 1009.5 0.0
22/04:00pm 29.5 29.7 22.0 64 5.1 SE 24 32 13 17 1009.8 1009.4 0.0
22/03:30pm 29.8 29.0 21.7 61 5.5 SE 28 35 15 19 1009.7 1009.3 0.0
22/03:00pm 30.5 29.8 21.0 57 6.4 SE 26 35 14 19 1009.7 1009.3 0.0
22/02:30pm 30.6 29.4 20.8 56 6.5 SE 28 35 15 19 1009.8 1009.4 0.0
22/02:00pm 31.1 30.0 21.0 55 6.8 SE 28 35 15 19 1010.1 1009.7 0.0
22/01:30pm 30.6 29.5 21.1 57 6.4 SE 28 39 15 21 1010.4 1010.0 0.0
22/01:00pm 30.8 29.3 21.0 56 6.6 SE 30 37 16 20 1010.5 1010.1 0.0
22/12:30pm 31.3 31.8 22.6 60 6.0 SE 24 33 13 18 1011.0 1010.7 0.0
22/12:00pm 30.9 30.5 21.7 58 6.2 ESE 26 37 14 20 1011.3 1011.0 0.0
22/11:30am 29.5 28.9 22.0 64 5.1 SE 28 37 15 20 1011.9 1011.6 0.0
22/11:00am 30.8 30.2 21.9 59 6.0 ESE 28 35 15 19 1012.1 1011.8 0.0
22/10:30am 29.1 28.8 21.8 64 4.9 SE 26 35 14 19 1012.6 1012.3 0.0
22/10:00am 30.2 29.8 22.4 63 5.3 ESE 28 37 15 20 1012.6 1012.3 0.0
22/09:30am 28.8 29.5 22.3 68 4.4 ESE 22 32 12 17 1012.7 1012.4 0.0
22/09:00am 28.3 28.4 21.8 68 4.4 ESE 24 32 13 17 1012.6 1012.3 0.0
22/08:30am 28.4 29.7 22.6 71 3.9 ESE 20 30 11 16 1012.3 1012.0 0.0
22/08:00am 27.3 28.9 22.9 77 3.0 ESE 19 24 10 13 1012.1 1011.8 0.0
22/07:30am 27.1 29.9 22.3 75 3.2 ESE 11 15 6 8 1012.0 1011.7 0.0
22/07:00am 25.8 28.9 22.1 80 2.5 ESE 9 13 5 7 1011.7 1011.4 0.0
22/06:30am 25.4 28.0 21.9 81 2.3 SE 11 13 6 7 1011.4 1011.1 0.0
22/06:00am 25.7 28.1 21.6 78 2.7 ESE 11 17 6 9 1011.0 1010.7 0.0
22/05:30am 25.4 27.8 21.5 79 2.6 SE 11 17 6 9 1010.7 1010.3 0.0
22/05:00am 25.6 27.4 21.1 76 3.0 SE 13 17 7 9 1010.4 1010.0 0.0
22/04:30am 25.4 27.7 21.3 78 2.7 SE 11 13 6 7 1010.4 1010.0 0.0
22/04:00am 25.8 27.3 21.2 76 3.0 SE 15 20 8 11 1010.3 1009.9 0.0
22/03:30am 25.5 27.3 21.2 77 2.8 SE 13 17 7 9 1010.5 1010.1 0.0
22/03:00am 25.7 27.6 21.4 77 2.9 SE 13 19 7 10 1010.6 1010.2 0.0
22/02:30am 25.7 27.7 21.6 78 2.7 SE 13 17 7 9 1010.8 1010.4 0.0
22/02:00am 25.7 28.1 21.6 78 2.7 SE 11 13 6 7 1011.0 1010.7 0.0
22/01:30am 26.1 27.7 21.5 76 3.1 SE 15 20 8 11 1011.2 1010.9 0.0
22/01:00am 26.0 27.7 21.7 77 2.9 SE 15 19 8 10 1011.5 1011.2 0.0
22/12:30am 26.1 27.8 21.7 77 2.9 SE 15 19 8 10 1011.8 1011.5 0.0
22/12:00am 26.0 28.1 21.7 77 2.9 SE 13 19 7 10 1012.1 1011.8 0.0
 
Date/Time
CST
Temp
°C
App
Temp
°C
Dew
Point
°C
Rel
Hum
%
Delta-T
°C
Wind Press
QNH
hPa
Press
MSL
hPa
Rain since
9am
mm
Dir  Spd
km/h
Gust
km/h
Spd
kts
Gust
kts
21/11:30pm 26.5 28.3 21.9 76 3.1 SE 15 20 8 11 1012.2 1011.9 0.0
21/11:00pm 26.6 28.5 22.0 76 3.1 SE 15 20 8 11 1012.1 1011.8 0.0
21/10:30pm 26.9 28.9 22.3 76 3.1 SE 15 20 8 11 1012.2 1011.9 0.0

Other formats

Comma delimited format used in spreadsheet applications
http://www.bom.gov.au/fwo/IDD60801/IDD60801.94150.axf

JavaScript Object Notation format (JSON) in row-major order
http://www.bom.gov.au/fwo/IDD60801/IDD60801.94150.json

Data quality

Most of these data are generated automatically and are frequently updated. Quality checks on data are not normally performed. It is possible for incorrect values to appear. Refer to information at About Latest Weather Observations and please check the disclaimer before using these data.